createdAt,value
2023-01-13T00:01:32.240Z,99641.78
2023-01-13T00:04:00.944Z,99642.47
2023-01-13T00:06:29.386Z,99648.97
2023-01-13T00:08:57.804Z,99645.50
2023-01-13T00:11:26.343Z,99637.47
2023-01-13T00:13:54.883Z,99642.81
2023-01-13T00:16:27.395Z,99640.16
2023-01-13T00:18:55.529Z,99637.47
2023-01-13T00:21:26.528Z,99634.81
2023-01-13T00:23:56.482Z,99629.81
2023-01-13T00:26:30.507Z,99636.81
2023-01-13T00:28:59.848Z,99636.09
2023-01-13T00:31:30.861Z,99634.44
2023-01-13T00:34:01.190Z,99627.28
2023-01-13T00:36:30.761Z,99621.84
2023-01-13T00:38:59.392Z,99616.50
2023-01-13T00:41:29.132Z,99607.66
2023-01-13T00:43:56.274Z,99593.13
2023-01-13T00:46:24.378Z,99600.78
2023-01-13T00:48:54.223Z,99596.81
2023-01-13T00:51:23.283Z,99584.91
2023-01-13T00:53:53.119Z,99597.63
2023-01-13T00:56:39.238Z,99584.91
2023-01-13T00:59:09.057Z,99580.41
2023-01-13T01:01:37.260Z,99583.28
2023-01-13T01:04:08.111Z,99570.47
2023-01-13T01:06:36.333Z,99575.25
2023-01-13T01:09:05.690Z,99575.25
2023-01-13T01:11:35.005Z,99589.63
2023-01-13T01:14:05.100Z,99581.97
2023-01-13T01:16:35.080Z,99577.81
2023-01-13T01:19:03.863Z,99590.81
2023-01-13T01:21:34.568Z,99597.69
2023-01-13T01:24:05.237Z,99593.66
2023-01-13T01:26:34.155Z,99613.19
2023-01-13T01:29:03.106Z,99611.06
2023-01-13T01:31:34.084Z,99604.75
2023-01-13T01:34:03.108Z,99615.34
2023-01-13T01:36:34.861Z,99609.50
2023-01-13T01:39:02.992Z,99605.53
2023-01-13T01:41:35.019Z,99604.91
2023-01-13T01:44:28.404Z,99608.56
2023-01-13T01:46:58.885Z,99616.41
2023-01-13T01:49:33.539Z,99606.22
2023-01-13T01:52:07.597Z,99607.19
2023-01-13T01:54:45.366Z,99614.56
2023-01-13T01:57:21.064Z,99604.91
2023-01-13T01:59:49.186Z,99608.41
2023-01-13T02:02:19.529Z,99602.50
2023-01-13T02:04:56.020Z,99596.47
2023-01-13T02:07:28.537Z,99598.47
2023-01-13T02:10:00.277Z,99595.81
2023-01-13T02:12:32.407Z,99584.47
2023-01-13T02:15:05.655Z,99591.50
2023-01-13T02:18:12.361Z,99584.75
2023-01-13T02:20:58.263Z,99594.81
2023-01-13T02:24:53.098Z,99593.50
2023-01-13T02:27:58.408Z,99588.03
2023-01-13T02:30:59.807Z,99596.56
2023-01-13T02:33:51.532Z,99593.75
2023-01-13T02:36:32.933Z,99595.28
2023-01-13T02:39:08.341Z,99599.13
2023-01-13T02:42:04.657Z,99601.78
2023-01-13T02:44:45.087Z,99600.31
2023-01-13T02:47:23.771Z,99592.78
2023-01-13T02:49:58.286Z,99610.00
2023-01-13T02:52:34.524Z,99615.69
2023-01-13T02:55:08.821Z,99617.69
2023-01-13T02:57:39.739Z,99624.69
2023-01-13T03:00:12.371Z,99636.56
2023-01-13T03:02:41.802Z,99626.41
2023-01-13T03:05:15.961Z,99626.13
2023-01-13T03:08:18.296Z,99633.81
2023-01-13T03:11:03.816Z,99631.78
2023-01-13T03:13:58.091Z,99644.63
2023-01-13T03:16:46.903Z,99645.66
2023-01-13T03:19:32.936Z,99646.50
2023-01-13T03:22:12.975Z,99657.19
2023-01-13T03:24:45.724Z,99639.50
2023-01-13T03:27:21.588Z,99629.81
2023-01-13T03:30:00.048Z,99617.97
2023-01-13T03:32:34.700Z,99629.00
2023-01-13T03:35:12.831Z,99634.16
2023-01-13T03:37:46.478Z,99634.16
2023-01-13T03:40:19.225Z,99636.34
2023-01-13T03:43:09.016Z,99650.88
2023-01-13T03:45:40.872Z,99663.19
2023-01-13T03:48:15.712Z,99656.88
2023-01-13T03:50:51.605Z,99656.72
2023-01-13T03:53:25.478Z,99649.56
2023-01-13T03:56:00.498Z,99646.56
2023-01-13T03:58:36.383Z,99641.94
2023-01-13T04:01:13.883Z,99643.63
2023-01-13T04:03:51.932Z,99646.28
2023-01-13T04:06:41.287Z,99650.44
2023-01-13T04:09:19.674Z,99654.81
2023-01-13T04:11:56.722Z,99659.66
2023-01-13T04:14:29.915Z,99650.16
2023-01-13T04:16:58.815Z,99642.66
2023-01-13T04:19:26.960Z,99638.69
2023-01-13T04:21:56.374Z,99631.03
2023-01-13T04:24:24.412Z,99631.19
2023-01-13T04:26:52.919Z,99642.34
2023-01-13T04:29:20.967Z,99655.88
2023-01-13T04:31:49.055Z,99650.03
2023-01-13T04:34:17.304Z,99648.03
2023-01-13T04:36:45.964Z,99649.38
2023-01-13T04:39:15.384Z,99651.22
2023-01-13T04:41:58.682Z,99646.41
2023-01-13T04:44:27.205Z,99651.09
2023-01-13T04:46:55.434Z,99656.56
2023-01-13T04:49:23.748Z,99657.06
2023-01-13T04:51:51.830Z,99666.09
2023-01-13T04:54:21.568Z,99656.56
2023-01-13T04:56:50.009Z,99664.22
2023-01-13T04:59:18.002Z,99663.72
2023-01-13T05:01:46.104Z,99658.75
2023-01-13T05:04:15.418Z,99658.09
2023-01-13T05:06:43.596Z,99652.25
2023-01-13T05:09:13.292Z,99647.78
2023-01-13T05:12:00.014Z,99646.09
2023-01-13T05:14:45.616Z,99630.44
2023-01-13T05:17:21.546Z,99632.47
2023-01-13T05:19:49.663Z,99639.13
2023-01-13T05:22:35.361Z,99637.66
2023-01-13T05:25:20.931Z,99639.13
2023-01-13T05:27:50.755Z,99633.63
2023-01-13T05:30:20.046Z,99638.44
2023-01-13T05:32:48.371Z,99643.63
2023-01-13T05:35:17.295Z,99639.13
2023-01-13T05:37:46.475Z,99643.44
2023-01-13T05:40:35.713Z,99645.09
2023-01-13T05:43:24.455Z,99643.78
2023-01-13T05:45:58.566Z,99649.09
2023-01-13T05:48:29.956Z,99639.28
2023-01-13T05:50:58.434Z,99634.28
2023-01-13T05:53:27.269Z,99632.81
2023-01-13T05:55:55.944Z,99621.81
2023-01-13T05:58:29.145Z,99609.16
2023-01-13T06:01:02.201Z,99608.66
2023-01-13T06:03:30.489Z,99623.16
2023-01-13T06:06:01.593Z,99623.00
2023-01-13T06:08:30.891Z,99623.50
2023-01-13T06:10:58.992Z,99623.50
2023-01-13T06:13:28.734Z,99633.66
2023-01-13T06:16:00.630Z,99638.28
2023-01-13T06:18:29.572Z,99636.28
2023-01-13T06:20:58.038Z,99650.94
2023-01-13T06:23:26.369Z,99644.44
2023-01-13T06:26:04.405Z,99637.13
2023-01-13T06:28:34.778Z,99632.44
2023-01-13T06:31:08.323Z,99639.09
2023-01-13T06:33:41.926Z,99639.28
2023-01-13T06:36:17.850Z,99647.78
2023-01-13T06:38:50.384Z,99635.09
2023-01-13T06:41:39.874Z,99634.94
2023-01-13T06:44:08.295Z,99637.28
2023-01-13T06:46:36.613Z,99639.09
2023-01-13T06:49:04.806Z,99628.59
2023-01-13T06:51:32.825Z,99626.13
2023-01-13T06:54:00.850Z,99633.63
2023-01-13T06:56:28.873Z,99634.09
2023-01-13T06:58:57.083Z,99628.78
2023-01-13T07:01:26.738Z,99626.94
2023-01-13T07:03:54.877Z,99615.28
2023-01-13T07:06:23.072Z,99604.44
2023-01-13T07:08:51.323Z,99602.63
2023-01-13T07:11:19.357Z,99613.09
2023-01-13T07:14:04.982Z,99618.78
2023-01-13T07:16:34.359Z,99615.13
2023-01-13T07:19:02.746Z,99628.59
2023-01-13T07:21:30.940Z,99642.09
2023-01-13T07:23:59.479Z,99633.78
2023-01-13T07:26:27.504Z,99635.13
2023-01-13T07:28:55.540Z,99635.44
2023-01-13T07:31:23.699Z,99630.59
2023-01-13T07:33:53.107Z,99626.13
2023-01-13T07:36:21.172Z,99649.44
2023-01-13T07:38:49.195Z,99640.44
2023-01-13T07:41:34.954Z,99635.09
2023-01-13T07:44:06.250Z,99644.13
2023-01-13T07:46:35.064Z,99636.63
2023-01-13T07:49:04.613Z,99640.78
2023-01-13T07:51:33.010Z,99642.28
2023-01-13T07:54:01.066Z,99640.13
2023-01-13T07:56:29.095Z,99656.09
2023-01-13T07:58:57.136Z,99653.78
2023-01-13T08:01:27.424Z,99646.09
2023-01-13T08:03:58.410Z,99660.91
2023-01-13T08:06:28.289Z,99660.75
2023-01-13T08:08:56.365Z,99653.09
2023-01-13T08:11:24.654Z,99655.44
2023-01-13T08:13:58.052Z,99657.78
2023-01-13T08:16:26.180Z,99646.09
2023-01-13T08:18:54.361Z,99647.13
2023-01-13T08:21:22.432Z,99655.13
2023-01-13T08:23:51.989Z,99645.09
2023-01-13T08:26:20.374Z,99652.44
2023-01-13T08:28:49.598Z,99648.13
2023-01-13T08:31:20.111Z,99663.78
2023-01-13T08:33:48.310Z,99663.78
2023-01-13T08:36:18.312Z,99674.44
2023-01-13T08:38:46.771Z,99669.75
2023-01-13T08:41:38.594Z,99671.25
2023-01-13T08:44:09.091Z,99672.59
2023-01-13T08:46:37.819Z,99669.09
2023-01-13T08:49:08.680Z,99675.59
2023-01-13T08:51:36.776Z,99682.06
2023-01-13T08:54:05.476Z,99673.09
2023-01-13T08:56:35.791Z,99669.09
2023-01-13T08:59:04.363Z,99668.41
2023-01-13T09:01:32.839Z,99681.06
2023-01-13T09:04:00.986Z,99667.41
2023-01-13T09:06:29.046Z,99678.75
2023-01-13T09:08:57.092Z,99668.75
2023-01-13T09:11:49.604Z,99669.44
2023-01-13T09:14:24.408Z,99667.75
2023-01-13T09:16:52.500Z,99669.25
2023-01-13T09:19:20.551Z,99672.06
2023-01-13T09:21:48.749Z,99682.72
2023-01-13T09:24:16.984Z,99682.06
2023-01-13T09:26:45.109Z,99700.19
2023-01-13T09:29:13.405Z,99683.06
2023-01-13T09:31:44.449Z,99690.88
2023-01-13T09:34:33.913Z,99689.03
2023-01-13T09:37:02.453Z,99705.19
2023-01-13T09:39:30.898Z,99708.34
2023-01-13T09:42:22.897Z,99718.50
2023-01-13T09:44:59.984Z,99716.84
2023-01-13T09:47:36.704Z,99701.69
2023-01-13T09:50:23.194Z,99707.03
2023-01-13T09:52:51.597Z,99714.72
2023-01-13T09:55:28.689Z,99704.19
2023-01-13T09:57:57.113Z,99725.53
2023-01-13T10:00:30.498Z,99712.19
2023-01-13T10:03:30.949Z,99715.03
2023-01-13T10:06:06.816Z,99706.38
2023-01-13T10:08:39.490Z,99711.34
2023-01-13T10:11:37.373Z,99723.69
2023-01-13T10:14:18.807Z,99713.03
2023-01-13T10:16:55.787Z,99715.34
2023-01-13T10:19:32.231Z,99713.88
2023-01-13T10:22:37.203Z,99727.84
2023-01-13T10:25:38.423Z,99713.88
2023-01-13T10:28:12.983Z,99720.03
2023-01-13T10:30:44.559Z,99713.88
2023-01-13T10:33:17.328Z,99718.84
2023-01-13T10:35:57.318Z,99718.16
2023-01-13T10:38:29.437Z,99711.34
2023-01-13T10:41:00.155Z,99711.34
2023-01-13T10:43:31.152Z,99717.19
2023-01-13T10:46:06.454Z,99712.53
2023-01-13T10:48:43.536Z,99717.03
2023-01-13T10:51:24.329Z,99724.34
2023-01-13T10:53:56.688Z,99726.03
2023-01-13T10:56:28.850Z,99727.69
2023-01-13T10:59:26.896Z,99723.50
2023-01-13T11:02:04.002Z,99742.00
2023-01-13T11:04:39.323Z,99728.19
2023-01-13T11:07:28.155Z,99744.34
2023-01-13T11:10:17.421Z,99733.69
2023-01-13T11:12:54.487Z,99724.69
2023-01-13T11:15:32.599Z,99719.34
2023-01-13T11:18:06.392Z,99731.19
2023-01-13T11:20:41.257Z,99727.69
2023-01-13T11:23:21.853Z,99745.31
2023-01-13T11:25:57.851Z,99734.34
2023-01-13T11:28:44.011Z,99739.03
2023-01-13T11:31:22.554Z,99738.69
2023-01-13T11:33:59.054Z,99736.19
2023-01-13T11:36:38.568Z,99734.19
2023-01-13T11:39:21.681Z,99728.19
2023-01-13T11:42:16.491Z,99739.34
2023-01-13T11:44:54.135Z,99731.19
2023-01-13T11:47:25.862Z,99723.34
2023-01-13T11:49:54.629Z,99719.31
2023-01-13T11:52:32.984Z,99723.66
2023-01-13T11:55:22.676Z,99716.00
2023-01-13T11:58:21.304Z,99722.66
2023-01-13T12:01:15.206Z,99731.66
2023-01-13T12:03:49.259Z,99728.97
2023-01-13T12:06:31.032Z,99725.34
2023-01-13T12:09:28.029Z,99727.66
2023-01-13T12:12:20.168Z,99726.84
2023-01-13T12:15:26.323Z,99728.19
2023-01-13T12:18:17.800Z,99732.00
2023-01-13T12:21:01.319Z,99723.19
2023-01-13T12:23:37.832Z,99725.69
2023-01-13T12:26:11.593Z,99733.69
2023-01-13T12:28:49.374Z,99728.00
2023-01-13T12:31:19.755Z,99718.50
2023-01-13T12:34:13.949Z,99738.66
2023-01-13T12:36:58.442Z,99733.47
2023-01-13T12:39:42.042Z,99727.50
2023-01-13T12:42:37.015Z,99726.66
2023-01-13T12:45:27.153Z,99721.34
2023-01-13T12:47:56.258Z,99718.22
2023-01-13T12:50:43.880Z,99722.34
2023-01-13T12:53:38.582Z,99724.53
2023-01-13T12:56:47.395Z,99720.03
2023-01-13T12:59:35.898Z,99726.69
2023-01-13T13:02:33.294Z,99726.19
2023-01-13T13:05:44.638Z,99728.53
2023-01-13T13:08:21.645Z,99732.84
2023-01-13T13:11:50.306Z,99730.34
2023-01-13T13:15:06.682Z,99722.69
2023-01-13T13:18:00.934Z,99707.34
2023-01-13T13:21:07.233Z,99703.06
2023-01-13T13:23:48.760Z,99708.03
2023-01-13T13:26:36.882Z,99717.03
2023-01-13T13:29:37.051Z,99723.88
2023-01-13T13:32:53.535Z,99734.53
2023-01-13T13:35:43.152Z,99741.84
2023-01-13T13:38:44.390Z,99768.94
2023-01-13T13:41:36.728Z,99775.94
2023-01-13T13:44:48.654Z,99782.53
2023-01-13T13:47:18.603Z,99783.50
2023-01-13T13:49:52.607Z,99795.13
2023-01-13T13:52:27.396Z,99789.00
2023-01-13T13:55:04.316Z,99789.84
2023-01-13T13:57:39.846Z,99800.81
2023-01-13T14:00:22.920Z,99824.41
2023-01-13T14:02:55.180Z,99834.03
2023-01-13T14:05:28.357Z,99820.38
2023-01-13T14:08:02.743Z,99826.03
2023-01-13T14:10:34.350Z,99821.53
2023-01-13T14:13:13.898Z,99815.06
2023-01-13T14:15:42.100Z,99818.69
2023-01-13T14:18:16.950Z,99825.69
2023-01-13T14:20:52.466Z,99817.03
2023-01-13T14:23:25.900Z,99808.38
2023-01-13T14:25:54.594Z,99812.41
2023-01-13T14:28:28.355Z,99812.06
2023-01-13T14:30:58.226Z,99824.41
2023-01-13T14:33:36.574Z,99817.78
2023-01-13T14:36:14.648Z,99832.56
2023-01-13T14:38:45.527Z,99828.09
2023-01-13T14:41:20.618Z,99820.75
2023-01-13T14:43:51.653Z,99844.25
2023-01-13T14:46:22.329Z,99838.75
2023-01-13T14:49:00.611Z,99847.44
2023-01-13T14:51:31.243Z,99848.78
2023-01-13T14:53:59.821Z,99853.94
2023-01-13T14:56:53.776Z,99848.94
2023-01-13T14:59:45.082Z,99850.59
2023-01-13T15:02:46.189Z,99852.75
2023-01-13T15:05:42.603Z,99860.59
2023-01-13T15:08:35.757Z,99867.75
2023-01-13T15:11:07.332Z,99871.41
2023-01-13T15:13:52.938Z,99876.72
2023-01-13T15:16:25.659Z,99874.91
2023-01-13T15:18:54.764Z,99868.75
2023-01-13T15:21:25.132Z,99880.91
2023-01-13T15:23:53.355Z,99881.25
2023-01-13T15:26:25.451Z,99885.22
2023-01-13T15:28:55.914Z,99886.06
2023-01-13T15:31:25.574Z,99897.56
2023-01-13T15:33:53.677Z,99898.53
2023-01-13T15:36:27.447Z,99904.69
2023-01-13T15:38:56.470Z,99906.38
2023-01-13T15:41:42.586Z,99909.19
2023-01-13T15:44:30.153Z,99913.00
2023-01-13T15:47:00.247Z,99913.00
2023-01-13T15:49:35.029Z,99910.19
2023-01-13T15:52:17.291Z,99914.00
2023-01-13T15:54:45.353Z,99934.63
2023-01-13T15:57:23.453Z,99931.97
2023-01-13T15:59:53.928Z,99934.63
2023-01-13T16:02:22.628Z,99953.41
2023-01-13T16:04:53.668Z,99940.94
2023-01-13T16:07:26.281Z,99951.59
2023-01-13T16:09:55.085Z,99945.63
2023-01-13T16:12:23.225Z,99952.81
2023-01-13T16:14:51.276Z,99942.66
2023-01-13T16:17:22.314Z,99955.97
2023-01-13T16:19:51.103Z,99959.00
2023-01-13T16:22:19.721Z,99968.13
2023-01-13T16:24:49.268Z,99963.97
2023-01-13T16:27:20.008Z,99974.31
2023-01-13T16:29:50.694Z,99970.09
2023-01-13T16:32:19.641Z,99985.28
2023-01-13T16:34:47.862Z,99981.59
2023-01-13T16:37:22.562Z,99976.28
2023-01-13T16:39:53.491Z,99982.28
2023-01-13T16:42:22.532Z,99981.28
2023-01-13T16:44:52.813Z,99984.63
2023-01-13T16:47:22.714Z,99984.94
2023-01-13T16:49:51.336Z,99990.59
2023-01-13T16:52:19.409Z,99991.41
2023-01-13T16:54:47.439Z,100001.25
2023-01-13T16:57:16.800Z,100002.22
2023-01-13T16:59:44.812Z,100010.22
2023-01-13T17:02:19.736Z,100019.19
2023-01-13T17:04:48.939Z,100023.84
2023-01-13T17:07:18.803Z,100020.13
2023-01-13T17:09:46.852Z,100029.63
2023-01-13T17:12:16.356Z,100028.97
2023-01-13T17:14:44.453Z,100043.78
2023-01-13T17:17:25.358Z,100040.13
2023-01-13T17:19:54.603Z,100048.13
2023-01-13T17:22:23.606Z,100053.59
2023-01-13T17:24:51.650Z,100056.25
2023-01-13T17:27:21.437Z,100058.91
2023-01-13T17:29:49.583Z,100056.25
2023-01-13T17:32:19.489Z,100064.69
2023-01-13T17:34:48.565Z,100066.69
2023-01-13T17:37:17.407Z,100070.31
2023-01-13T17:39:48.267Z,100084.66
2023-01-13T17:42:17.077Z,100085.31
2023-01-13T17:44:47.956Z,100090.78
2023-01-13T17:47:16.332Z,100086.31
2023-01-13T17:49:44.345Z,100094.47
2023-01-13T17:52:12.495Z,100101.59
2023-01-13T17:54:42.974Z,100091.94
2023-01-13T17:57:11.162Z,100084.13
2023-01-13T17:59:41.296Z,100090.56
2023-01-13T18:02:13.565Z,100096.38
2023-01-13T18:04:42.375Z,100096.19
2023-01-13T18:07:10.448Z,100088.22
2023-01-13T18:09:38.550Z,100090.34
2023-01-13T18:12:07.195Z,100087.00
2023-01-13T18:14:35.958Z,100093.31
2023-01-13T18:17:04.061Z,100098.81
2023-01-13T18:19:51.180Z,100110.56
2023-01-13T18:22:36.586Z,100113.72
2023-01-13T18:25:22.559Z,100120.00
2023-01-13T18:27:50.619Z,100123.34
2023-01-13T18:30:19.169Z,100134.69
2023-01-13T18:32:47.228Z,100126.41
2023-01-13T18:35:16.715Z,100133.22
2023-01-13T18:37:44.739Z,100140.25
2023-01-13T18:40:14.393Z,100155.22
2023-01-13T18:42:54.693Z,100157.63
2023-01-13T18:45:26.681Z,100164.25
2023-01-13T18:47:57.565Z,100163.56
2023-01-13T18:50:28.138Z,100160.66
2023-01-13T18:52:56.569Z,100158.44
2023-01-13T18:55:25.778Z,100159.59
2023-01-13T18:57:54.056Z,100155.28
2023-01-13T19:00:24.911Z,100165.38
2023-01-13T19:05:38.163Z,100174.72
2023-01-13T19:08:06.569Z,100181.41
2023-01-13T19:10:34.671Z,100183.78
2023-01-13T19:13:02.910Z,100189.09
2023-01-13T19:15:31.719Z,100194.41
2023-01-13T19:18:00.142Z,100193.03
2023-01-13T19:20:28.272Z,100188.41
2023-01-13T19:22:57.644Z,100188.56
2023-01-13T19:25:26.318Z,100200.03
2023-01-13T19:27:54.372Z,100197.38
2023-01-13T19:30:22.674Z,100211.22
2023-01-13T19:32:51.161Z,100216.41
2023-01-13T19:35:19.993Z,100208.72
2023-01-13T19:37:48.088Z,100216.00
2023-01-13T19:40:17.987Z,100223.00
2023-01-13T19:43:03.785Z,100225.66
2023-01-13T19:45:35.113Z,100223.00
2023-01-13T19:48:05.198Z,100222.03
2023-01-13T19:50:38.600Z,100228.31
2023-01-13T19:53:07.539Z,100233.66
2023-01-13T19:55:36.979Z,100245.13
2023-01-13T19:58:05.046Z,100236.69
2023-01-13T20:00:33.333Z,100235.88
2023-01-13T20:03:03.460Z,100235.03
2023-01-13T20:05:32.303Z,100247.31
2023-01-13T20:08:00.375Z,100257.16
2023-01-13T20:10:30.367Z,100256.84
2023-01-13T20:12:59.894Z,100270.41
2023-01-13T20:15:28.047Z,100268.72
2023-01-13T20:17:57.259Z,100274.44
2023-01-13T20:20:27.273Z,100276.25
2023-01-13T20:22:55.344Z,100277.09
2023-01-13T20:25:23.413Z,100269.66
2023-01-13T20:27:51.515Z,100274.16
2023-01-13T20:30:21.178Z,100277.78
2023-01-13T20:32:49.379Z,100279.16
2023-01-13T20:35:18.256Z,100279.16
2023-01-13T20:37:46.321Z,100279.47
2023-01-13T20:40:18.314Z,100294.06
2023-01-13T20:42:46.611Z,100284.56
2023-01-13T20:45:20.618Z,100284.69
2023-01-13T20:47:50.213Z,100292.13
2023-01-13T20:50:18.970Z,100299.38
2023-01-13T20:52:48.460Z,100303.72
2023-01-13T20:55:16.686Z,100302.41
2023-01-13T20:57:48.442Z,100312.09
2023-01-13T21:00:18.055Z,100300.41
2023-01-13T21:02:46.108Z,100313.56
2023-01-13T21:05:15.843Z,100312.88
2023-01-13T21:07:43.939Z,100326.19
2023-01-13T21:10:12.538Z,100329.81
2023-01-13T21:12:58.238Z,100332.78
2023-01-13T21:15:27.403Z,100350.19
2023-01-13T21:18:13.323Z,100352.31
2023-01-13T21:20:42.753Z,100363.25
2023-01-13T21:23:11.722Z,100373.94
2023-01-13T21:25:40.390Z,100382.94
2023-01-13T21:28:11.404Z,100375.09
2023-01-13T21:30:40.042Z,100373.88
2023-01-13T21:33:08.503Z,100379.59
2023-01-13T21:35:39.998Z,100377.91
2023-01-13T21:38:11.262Z,100387.16
2023-01-13T21:40:39.342Z,100378.50
2023-01-13T21:43:24.975Z,100377.25
2023-01-13T21:46:10.466Z,100369.69
2023-01-13T21:48:38.543Z,100368.72
2023-01-13T21:51:06.922Z,100378.78
2023-01-13T21:53:36.361Z,100375.16
2023-01-13T21:56:04.613Z,100378.78
2023-01-13T21:58:32.662Z,100379.06
2023-01-13T22:01:03.764Z,100381.84
2023-01-13T22:03:52.611Z,100391.75
2023-01-13T22:06:20.744Z,100395.13
2023-01-13T22:08:50.222Z,100403.94
2023-01-13T22:11:18.454Z,100397.78
2023-01-13T22:14:03.851Z,100405.47
2023-01-13T22:16:33.758Z,100405.59
2023-01-13T22:19:01.811Z,100404.34
2023-01-13T22:21:29.905Z,100420.16
2023-01-13T22:23:59.996Z,100411.47
2023-01-13T22:26:28.189Z,100426.63
2023-01-13T22:28:56.653Z,100428.84
2023-01-13T22:31:25.746Z,100419.88
2023-01-13T22:33:55.688Z,100425.34
2023-01-13T22:36:24.867Z,100434.13
2023-01-13T22:38:56.132Z,100426.59
2023-01-13T22:41:25.540Z,100429.34
2023-01-13T22:43:53.572Z,100449.00
2023-01-13T22:46:22.861Z,100439.31
2023-01-13T22:48:53.616Z,100450.53
2023-01-13T22:51:22.720Z,100448.56
2023-01-13T22:53:51.090Z,100459.38
2023-01-13T22:56:22.589Z,100455.44
2023-01-13T22:58:57.804Z,100459.34
2023-01-13T23:01:27.745Z,100454.31
2023-01-13T23:03:56.903Z,100463.31
2023-01-13T23:06:28.384Z,100462.03
2023-01-13T23:08:57.346Z,100473.25
2023-01-13T23:11:29.381Z,100470.72
2023-01-13T23:14:04.463Z,100477.31
2023-01-13T23:16:35.951Z,100485.16
2023-01-13T23:19:05.236Z,100489.91
2023-01-13T23:21:36.035Z,100492.00
2023-01-13T23:24:04.993Z,100506.56
2023-01-13T23:26:36.174Z,100502.34
2023-01-13T23:29:08.870Z,100501.66
2023-01-13T23:31:37.161Z,100506.16
2023-01-13T23:34:05.437Z,100508.94
2023-01-13T23:36:36.825Z,100512.03
2023-01-13T23:39:05.057Z,100509.78
2023-01-13T23:41:33.108Z,100525.16
2023-01-13T23:44:02.516Z,100513.84
2023-01-13T23:46:33.903Z,100516.78
2023-01-13T23:49:04.209Z,100510.75
2023-01-13T23:51:33.105Z,100522.50
2023-01-13T23:54:01.332Z,100524.03
2023-01-13T23:56:32.083Z,100531.88
2023-01-13T23:59:00.551Z,100519.16
